Time;durP1;ratioP1;P1;durP2;ratioP2;P2;SDS_P1;SDS_P2;PMS_P1;PMS_P2;Temp;Humidity;BMP_temperature;BMP_pressure;BME280_temperature;BME280_humidity;BME280_pressure;Samples;Min_cycle;Max_cycle;Signal;HPM_P1;HPM_P2
2023/12/14 00:00:13;;;;;;;4.28;2.85;;;4.10;99.90;;;;;;4995240;28;20122;-84
2023/12/14 00:03:04;;;;;;;4.47;2.63;;;4.10;99.90;;;;;;5000624;28;20192;-85
2023/12/14 00:06:07;;;;;;;5.03;3.25;;;4.10;99.90;;;;;;4995786;28;20042;-84
2023/12/14 00:08:56;;;;;;;3.92;2.20;;;4.20;99.90;;;;;;5011021;28;20054;-85
2023/12/14 00:11:44;;;;;;;4.60;2.15;;;4.20;99.90;;;;;;4997384;28;20155;-85
2023/12/14 00:14:35;;;;;;;5.93;2.72;;;4.20;99.90;;;;;;5006314;28;20132;-83
2023/12/14 00:17:25;;;;;;;3.25;2.13;;;4.20;99.90;;;;;;5005871;28;20073;-84
2023/12/14 00:20:15;;;;;;;4.82;3.10;;;4.20;99.90;;;;;;5008957;28;20042;-83
2023/12/14 00:23:02;;;;;;;4.78;3.50;;;4.30;99.90;;;;;;5010844;28;20338;-84
2023/12/14 00:25:50;;;;;;;4.32;2.50;;;4.30;99.90;;;;;;5012310;28;20092;-85
2023/12/14 00:28:38;;;;;;;4.10;2.88;;;4.30;99.90;;;;;;5007726;28;20069;-83
2023/12/14 00:31:27;;;;;;;6.03;2.80;;;4.30;99.90;;;;;;5012949;28;20637;-84
2023/12/14 00:34:17;;;;;;;5.05;2.88;;;4.30;99.90;;;;;;4995753;28;20065;-82
2023/12/14 00:37:04;;;;;;;3.70;2.50;;;4.30;99.90;;;;;;5007323;28;20475;-85
2023/12/14 00:39:52;;;;;;;4.13;2.95;;;4.30;99.90;;;;;;5017587;28;20057;-85
2023/12/14 00:42:39;;;;;;;5.80;2.97;;;4.30;99.90;;;;;;5006066;28;20054;-82
2023/12/14 00:45:28;;;;;;;5.45;2.88;;;4.30;99.90;;;;;;5014161;28;20164;-85
2023/12/14 00:48:18;;;;;;;3.47;2.67;;;4.30;99.90;;;;;;5013833;28;20057;-85
2023/12/14 00:51:05;;;;;;;8.32;2.65;;;4.30;99.90;;;;;;5011162;28;20043;-84
2023/12/14 00:53:53;;;;;;;2.97;2.25;;;4.40;99.90;;;;;;5019288;28;20053;-85
2023/12/14 00:56:40;;;;;;;2.78;2.10;;;4.40;99.90;;;;;;4998785;28;20312;-84
2023/12/14 00:59:29;;;;;;;5.85;2.20;;;4.40;99.90;;;;;;5013186;28;20042;-85
2023/12/14 01:02:16;;;;;;;3.35;2.20;;;4.40;99.90;;;;;;4997841;28;20057;-85
2023/12/14 01:05:07;;;;;;;3.65;2.00;;;4.40;99.90;;;;;;5016940;28;20116;-85
2023/12/14 01:07:54;;;;;;;2.22;1.95;;;4.40;99.90;;;;;;4996787;28;20152;-83
2023/12/14 01:10:41;;;;;;;2.65;2.00;;;4.40;99.90;;;;;;5012893;28;20038;-84
2023/12/14 01:13:29;;;;;;;4.65;2.20;;;4.40;99.90;;;;;;5008557;28;20125;-84
2023/12/14 01:16:16;;;;;;;2.25;2.05;;;4.40;99.90;;;;;;5014236;28;20063;-84
2023/12/14 01:19:05;;;;;;;1.95;1.85;;;4.40;99.90;;;;;;5011609;28;20045;-82
2023/12/14 01:21:57;;;;;;;2.65;2.30;;;4.40;99.90;;;;;;4996664;28;20085;-81
2023/12/14 01:24:46;;;;;;;3.95;2.28;;;4.40;99.90;;;;;;5008633;28;20050;-84
2023/12/14 01:27:34;;;;;;;3.92;2.30;;;4.40;99.90;;;;;;5020711;28;20359;-84
2023/12/14 01:30:23;;;;;;;4.43;2.22;;;4.40;99.90;;;;;;5002208;28;20046;-80
2023/12/14 01:33:11;;;;;;;6.97;2.58;;;4.40;99.90;;;;;;5009270;28;20042;-84
2023/12/14 01:35:58;;;;;;;4.57;3.08;;;4.50;99.90;;;;;;5002642;28;20038;-84
2023/12/14 01:38:52;;;;;;;6.78;3.28;;;4.50;99.90;;;;;;5024994;28;20129;-84
2023/12/14 01:41:39;;;;;;;15.30;5.47;;;4.40;99.90;;;;;;5007283;28;20133;-85
2023/12/14 01:44:26;;;;;;;9.27;5.82;;;4.40;99.90;;;;;;5009933;28;20046;-84
2023/12/14 01:47:13;;;;;;;10.63;6.35;;;4.50;99.90;;;;;;5015337;28;20104;-84
2023/12/14 01:50:00;;;;;;;11.40;6.45;;;4.50;99.90;;;;;;5013739;28;20046;-83
2023/12/14 01:52:50;;;;;;;11.68;7.25;;;4.50;99.90;;;;;;5019588;28;20057;-84
2023/12/14 01:55:44;;;;;;;9.27;7.50;;;4.50;99.90;;;;;;5019339;28;20113;-84
2023/12/14 01:58:32;;;;;;;9.70;7.47;;;4.50;99.90;;;;;;5009281;28;20052;-83
2023/12/14 02:01:48;;;;;;;11.43;8.20;;;4.50;99.90;;;;;;5019100;28;20120;-83
2023/12/14 02:04:37;;;;;;;10.82;8.15;;;4.50;99.90;;;;;;5012857;28;20114;-83
2023/12/14 02:07:25;;;;;;;11.55;8.57;;;4.60;99.90;;;;;;5024257;28;20061;-86
2023/12/14 02:10:14;;;;;;;17.05;8.45;;;4.60;99.90;;;;;;4998401;28;20049;-84
2023/12/14 02:13:02;;;;;;;12.38;8.93;;;4.60;99.90;;;;;;5008721;28;20069;-87
2023/12/14 02:15:50;;;;;;;12.25;8.27;;;4.60;99.90;;;;;;5008289;28;20050;-86
2023/12/14 02:18:37;;;;;;;10.75;8.23;;;4.60;99.90;;;;;;5010176;28;20065;-81
2023/12/14 02:21:24;;;;;;;17.73;9.02;;;4.60;99.90;;;;;;5011020;28;20053;-83
2023/12/14 02:24:11;;;;;;;13.55;9.13;;;4.70;99.90;;;;;;5008323;28;20046;-86
2023/12/14 02:27:02;;;;;;;11.65;9.07;;;4.70;99.90;;;;;;5010977;28;20056;-87
2023/12/14 02:29:50;;;;;;;15.60;10.02;;;4.70;99.90;;;;;;5006294;28;20042;-86
2023/12/14 02:32:41;;;;;;;15.57;10.13;;;4.60;99.90;;;;;;4997279;28;20049;-85
2023/12/14 02:35:28;;;;;;;16.02;11.00;;;4.60;99.90;;;;;;4999462;28;20042;-85
2023/12/14 02:38:40;;;;;;;17.40;11.43;;;4.60;99.90;;;;;;5000464;28;20038;-85
2023/12/14 02:41:29;;;;;;;15.35;8.63;;;4.60;99.90;;;;;;5005970;28;20056;-84
2023/12/14 02:44:18;;;;;;;18.08;12.68;;;4.50;99.90;;;;;;5012062;28;20068;-86
2023/12/14 02:47:05;;;;;;;21.83;12.98;;;4.50;99.90;;;;;;4997938;28;20104;-84
2023/12/14 02:49:52;;;;;;;20.08;13.50;;;4.50;99.90;;;;;;5006537;28;20108;-85
2023/12/14 02:52:40;;;;;;;19.83;13.82;;;4.50;99.90;;;;;;5011498;28;20038;-85
2023/12/14 02:55:27;;;;;;;20.23;13.05;;;4.50;99.90;;;;;;5010292;28;20034;-84
2023/12/14 02:58:14;;;;;;;20.10;13.88;;;4.60;99.90;;;;;;5005839;28;20129;-85
2023/12/14 03:01:02;;;;;;;18.33;13.07;;;4.60;99.90;;;;;;5000503;28;20371;-86
2023/12/14 03:03:49;;;;;;;22.30;13.75;;;4.60;99.90;;;;;;5009466;28;20050;-85
2023/12/14 03:06:36;;;;;;;20.92;13.38;;;4.60;99.90;;;;;;5005141;28;20124;-85
2023/12/14 03:09:24;;;;;;;22.33;13.93;;;4.60;99.90;;;;;;5005981;28;20108;-85
2023/12/14 03:12:11;;;;;;;20.75;13.80;;;4.70;99.90;;;;;;4998449;28;20054;-80
2023/12/14 03:15:03;;;;;;;20.02;13.27;;;4.60;99.90;;;;;;5010119;28;20057;-83
2023/12/14 03:17:50;;;;;;;21.08;14.35;;;4.60;99.90;;;;;;5011054;28;20061;-84
2023/12/14 03:20:38;;;;;;;23.27;15.05;;;4.70;99.90;;;;;;4990742;28;20054;-84
2023/12/14 03:23:25;;;;;;;25.02;15.43;;;4.70;99.90;;;;;;4999579;28;20086;-84
2023/12/14 03:26:12;;;;;;;28.83;17.00;;;4.70;99.90;;;;;;5004900;28;20049;-84
2023/12/14 03:29:04;;;;;;;30.20;17.05;;;4.70;99.90;;;;;;5010086;28;20057;-85
2023/12/14 03:31:56;;;;;;;27.05;16.13;;;4.70;99.90;;;;;;5010815;28;20129;-84
2023/12/14 03:34:44;;;;;;;;;;;4.70;99.90;;;;;;5010404;28;20073;-83
2023/12/14 03:37:33;;;;;;;25.70;15.95;;;4.70;99.90;;;;;;5012598;28;20344;-84
2023/12/14 03:40:20;;;;;;;26.23;16.80;;;4.60;99.90;;;;;;5010583;28;20069;-85
2023/12/14 03:43:08;;;;;;;26.70;16.63;;;4.70;99.90;;;;;;5012796;28;20050;-85
2023/12/14 03:45:55;;;;;;;29.10;18.25;;;4.70;99.90;;;;;;5015358;28;20061;-85
2023/12/14 03:48:42;;;;;;;33.58;18.55;;;4.70;99.90;;;;;;5016643;28;20061;-84
2023/12/14 03:51:30;;;;;;;32.20;18.27;;;4.70;99.90;;;;;;5015699;28;20050;-82
2023/12/14 03:54:17;;;;;;;34.95;19.60;;;4.70;99.90;;;;;;4991947;28;20049;-83
2023/12/14 03:57:04;;;;;;;34.50;19.88;;;4.60;99.90;;;;;;5013406;28;20042;-85
2023/12/14 03:59:51;;;;;;;35.28;20.65;;;4.70;99.90;;;;;;5007897;28;20092;-83
2023/12/14 04:02:39;;;;;;;34.75;18.77;;;4.70;99.90;;;;;;5012656;28;20056;-85
2023/12/14 04:05:29;;;;;;;29.90;18.63;;;4.70;99.90;;;;;;5006984;28;20665;-84
2023/12/14 04:08:16;;;;;;;35.45;18.77;;;4.70;99.90;;;;;;5011071;28;20096;-85
2023/12/14 04:11:03;;;;;;;30.90;18.85;;;4.70;99.90;;;;;;5010766;28;20463;-85
2023/12/14 04:13:53;;;;;;;32.50;19.27;;;4.80;99.90;;;;;;5010930;28;20478;-84
2023/12/14 04:16:40;;;;;;;36.15;20.42;;;4.70;99.90;;;;;;5007609;28;20156;-85
2023/12/14 04:19:28;;;;;;;45.30;21.63;;;4.80;99.90;;;;;;5011092;28;20049;-85
2023/12/14 04:22:15;;;;;;;39.35;20.48;;;4.80;99.90;;;;;;5012382;28;20137;-82
2023/12/14 04:25:02;;;;;;;40.92;19.50;;;4.80;99.90;;;;;;5011799;28;20057;-85
2023/12/14 04:27:50;;;;;;;36.28;21.15;;;4.80;99.90;;;;;;5015286;28;20057;-85
2023/12/14 04:30:37;;;;;;;34.17;20.38;;;4.80;99.90;;;;;;5012084;28;20046;-85
2023/12/14 04:33:24;;;;;;;32.28;18.30;;;4.70;99.90;;;;;;5010196;28;20049;-84
2023/12/14 04:36:12;;;;;;;33.75;20.08;;;4.80;99.90;;;;;;5010378;28;20374;-85
2023/12/14 04:38:59;;;;;;;35.78;19.27;;;4.80;99.90;;;;;;5013349;28;20065;-85
2023/12/14 04:41:46;;;;;;;36.90;19.50;;;4.80;99.90;;;;;;5001793;28;20068;-84
2023/12/14 04:44:36;;;;;;;36.58;19.35;;;4.80;99.90;;;;;;4989688;28;20054;-84
2023/12/14 04:47:26;;;;;;;31.55;19.42;;;4.80;99.90;;;;;;5010391;28;20476;-83
2023/12/14 04:50:13;;;;;;;35.45;20.02;;;4.80;99.90;;;;;;5013881;28;20050;-82
2023/12/14 04:53:00;;;;;;;38.22;21.00;;;4.80;99.90;;;;;;5003946;28;20058;-86
2023/12/14 04:55:47;;;;;;;34.10;20.70;;;4.70;99.90;;;;;;4998422;28;20046;-86
2023/12/14 04:58:35;;;;;;;36.33;19.77;;;4.80;99.90;;;;;;5010869;28;20045;-85
2023/12/14 05:01:22;;;;;;;36.65;19.08;;;4.80;99.90;;;;;;5004905;28;20046;-84
2023/12/14 05:04:09;;;;;;;33.58;18.77;;;4.80;99.90;;;;;;5013215;28;20486;-85
2023/12/14 05:06:57;;;;;;;34.30;18.60;;;4.80;99.90;;;;;;5003086;28;20420;-82
2023/12/14 05:09:44;;;;;;;35.05;18.00;;;4.80;99.90;;;;;;5006014;28;20061;-86
2023/12/14 05:12:33;;;;;;;38.63;19.90;;;4.80;99.90;;;;;;5012847;28;20311;-85
2023/12/14 05:15:21;;;;;;;40.38;21.83;;;4.70;99.90;;;;;;5011388;28;20046;-85
2023/12/14 05:18:10;;;;;;;39.70;20.60;;;4.80;99.90;;;;;;5011600;28;20188;-81
2023/12/14 05:20:59;;;;;;;43.55;21.45;;;4.70;99.90;;;;;;5014125;28;20049;-86
2023/12/14 05:23:51;;;;;;;36.58;18.90;;;4.70;99.90;;;;;;5009981;28;20401;-85
2023/12/14 05:26:38;;;;;;;44.03;21.75;;;4.80;99.90;;;;;;5012010;28;20114;-85
2023/12/14 05:29:25;;;;;;;42.00;21.35;;;4.80;99.90;;;;;;4990614;28;20076;-85
2023/12/14 05:32:13;;;;;;;44.33;22.40;;;4.80;99.90;;;;;;5008545;28;20049;-85
2023/12/14 05:35:00;;;;;;;48.33;25.50;;;4.70;99.90;;;;;;5018825;28;20051;-84
2023/12/14 05:37:48;;;;;;;56.33;26.70;;;4.70;99.90;;;;;;5030525;28;20045;-85
2023/12/14 05:40:35;;;;;;;47.05;25.25;;;4.70;99.90;;;;;;5022625;28;20038;-83
2023/12/14 05:43:25;;;;;;;48.25;25.52;;;4.70;99.90;;;;;;5015243;28;20046;-83
2023/12/14 05:46:23;;;;;;;46.67;23.92;;;4.70;99.90;;;;;;5017728;28;20046;-82
2023/12/14 05:49:11;;;;;;;47.55;23.90;;;4.70;99.90;;;;;;4999663;28;20065;-83
2023/12/14 05:52:01;;;;;;;48.38;24.23;;;4.70;99.90;;;;;;5001283;28;20042;-83
2023/12/14 05:54:48;;;;;;;46.47;25.10;;;4.70;99.90;;;;;;5016067;28;20038;-81
2023/12/14 05:57:39;;;;;;;44.83;24.15;;;4.70;99.90;;;;;;4998544;28;20046;-85
2023/12/14 06:00:26;;;;;;;53.42;27.60;;;4.70;99.90;;;;;;5000517;28;20493;-82
2023/12/14 06:03:13;;;;;;;54.53;28.25;;;4.80;99.90;;;;;;5013372;28;20045;-83
2023/12/14 06:06:01;;;;;;;48.90;24.85;;;4.80;99.90;;;;;;5012218;28;20050;-84
2023/12/14 06:08:48;;;;;;;59.33;29.08;;;4.80;99.90;;;;;;5012274;28;20473;-83
2023/12/14 06:11:36;;;;;;;61.72;26.75;;;4.80;99.90;;;;;;5008695;28;20469;-85
2023/12/14 06:14:23;;;;;;;48.38;25.52;;;4.80;99.90;;;;;;5010353;28;20046;-86
2023/12/14 06:17:10;;;;;;;49.28;25.13;;;4.80;99.90;;;;;;5009023;28;20041;-85
2023/12/14 06:19:58;;;;;;;51.13;24.17;;;4.80;99.90;;;;;;5006062;28;20108;-86
2023/12/14 06:22:45;;;;;;;45.45;24.75;;;4.90;99.90;;;;;;5010334;28;20050;-86
2023/12/14 06:25:32;;;;;;;47.83;24.98;;;4.80;99.90;;;;;;5009059;28;20135;-85
2023/12/14 06:28:19;;;;;;;45.25;23.35;;;4.80;99.90;;;;;;4996540;28;20112;-85
2023/12/14 06:31:13;;;;;;;42.17;21.00;;;4.90;99.90;;;;;;5013711;28;20056;-82
2023/12/14 06:34:03;;;;;;;41.35;20.88;;;4.90;99.90;;;;;;5016556;28;20046;-87
2023/12/14 06:36:51;;;;;;;43.13;22.92;;;4.90;99.90;;;;;;5000129;28;20096;-82
2023/12/14 06:39:38;;;;;;;36.65;22.20;;;4.90;99.90;;;;;;4995024;28;20045;-82
2023/12/14 06:42:27;;;;;;;39.72;21.55;;;4.90;99.90;;;;;;5016571;28;20050;-85
2023/12/14 06:45:15;;;;;;;34.75;20.77;;;4.90;99.90;;;;;;5013318;28;20126;-84
2023/12/14 06:48:03;;;;;;;30.85;18.35;;;4.90;99.90;;;;;;5000709;28;20042;-83
2023/12/14 06:50:50;;;;;;;26.65;15.35;;;4.90;99.90;;;;;;5017188;28;20038;-83
2023/12/14 06:53:40;;;;;;;25.83;16.13;;;4.90;99.90;;;;;;5013397;28;20454;-85
2023/12/14 06:56:28;;;;;;;26.77;14.43;;;4.90;99.90;;;;;;5017731;28;20042;-88
2023/12/14 06:59:17;;;;;;;28.73;15.48;;;4.90;99.90;;;;;;5012583;28;20370;-86
2023/12/14 07:02:05;;;;;;;27.48;15.13;;;4.90;99.90;;;;;;4990769;28;20056;-85
2023/12/14 07:04:55;;;;;;;31.75;17.33;;;4.90;99.90;;;;;;5017835;28;20085;-85
2023/12/14 07:07:42;;;;;;;35.90;18.65;;;4.90;99.90;;;;;;5019247;28;20481;-85
2023/12/14 07:10:29;;;;;;;40.78;19.17;;;4.90;99.90;;;;;;5015447;28;20049;-86
2023/12/14 07:13:17;;;;;;;34.67;17.60;;;4.90;99.90;;;;;;5013653;28;20061;-84
2023/12/14 07:16:12;;;;;;;29.02;14.90;;;4.90;99.90;;;;;;5015306;28;20049;-81
2023/12/14 07:18:59;;;;;;;27.40;14.55;;;4.90;99.90;;;;;;5014621;28;20152;-81
2023/12/14 07:21:49;;;;;;;23.50;12.27;;;4.90;99.90;;;;;;5007835;28;20133;-86
2023/12/14 07:24:36;;;;;;;23.00;12.35;;;4.90;99.90;;;;;;5013202;28;20046;-86
2023/12/14 07:27:38;;;;;;;25.38;15.00;;;4.90;99.90;;;;;;5002921;28;20148;-81
2023/12/14 07:30:25;;;;;;;27.27;15.63;;;4.90;99.90;;;;;;5017819;28;20078;-85
2023/12/14 07:33:14;;;;;;;28.85;16.35;;;4.90;99.90;;;;;;5020255;28;20422;-86
2023/12/14 07:36:01;;;;;;;29.23;17.25;;;4.90;99.90;;;;;;5006728;28;20177;-84
2023/12/14 07:38:49;;;;;;;32.00;16.60;;;4.90;99.90;;;;;;5008848;28;20046;-85
2023/12/14 07:41:39;;;;;;;31.08;17.17;;;4.90;99.90;;;;;;4997766;28;20116;-87
2023/12/14 07:44:29;;;;;;;31.20;16.90;;;4.90;99.90;;;;;;5016331;28;20050;-87
2023/12/14 07:47:21;;;;;;;325.67;32.90;;;4.90;99.90;;;;;;5010071;28;20129;-87
2023/12/14 07:50:09;;;;;;;39.85;19.38;;;4.90;99.90;;;;;;5015472;28;20054;-87
2023/12/14 07:52:56;;;;;;;32.28;18.70;;;4.90;99.90;;;;;;5009209;28;20343;-86
2023/12/14 07:55:44;;;;;;;36.53;18.35;;;4.90;99.90;;;;;;5007657;28;20093;-85
2023/12/14 07:58:31;;;;;;;28.35;15.13;;;4.90;99.90;;;;;;5012691;28;20093;-87
2023/12/14 08:01:20;;;;;;;25.02;13.52;;;5.00;99.90;;;;;;5006626;28;20045;-85
2023/12/14 08:04:08;;;;;;;22.65;13.10;;;5.00;99.90;;;;;;5017883;28;20056;-85
2023/12/14 08:06:56;;;;;;;21.58;11.90;;;5.00;99.90;;;;;;5017205;28;20504;-82
2023/12/14 08:09:43;;;;;;;22.60;12.45;;;5.00;99.90;;;;;;5016785;28;20072;-86
2023/12/14 08:12:33;;;;;;;26.17;13.27;;;5.00;99.90;;;;;;5011000;28;20052;-85
2023/12/14 08:15:25;;;;;;;25.00;14.45;;;5.00;99.90;;;;;;5017643;28;20034;-83
2023/12/14 08:18:12;;;;;;;25.17;15.15;;;5.10;99.90;;;;;;4998593;28;20049;-86
2023/12/14 08:21:00;;;;;;;24.02;14.18;;;5.10;99.90;;;;;;5016575;28;20454;-89
2023/12/14 08:23:47;;;;;;;28.58;14.73;;;5.10;99.90;;;;;;5012626;28;20041;-83
2023/12/14 08:26:35;;;;;;;22.35;13.35;;;5.10;99.90;;;;;;5009251;28;20470;-87
2023/12/14 08:29:22;;;;;;;23.00;13.90;;;5.10;99.90;;;;;;5009141;28;20045;-87
2023/12/14 08:32:12;;;;;;;23.17;12.25;;;5.20;99.90;;;;;;5012517;28;20500;-86
2023/12/14 08:34:59;;;;;;;22.13;12.20;;;5.20;99.90;;;;;;5015808;28;20437;-86
2023/12/14 08:37:49;;;;;;;22.13;12.27;;;5.20;99.90;;;;;;5004698;28;20121;-85
2023/12/14 08:40:37;;;;;;;22.90;12.50;;;5.20;99.90;;;;;;5004832;28;20042;-85
2023/12/14 08:43:24;;;;;;;21.25;13.02;;;5.30;99.90;;;;;;5016937;28;20347;-85
2023/12/14 08:46:12;;;;;;;24.15;13.98;;;5.40;99.90;;;;;;5019846;28;20470;-86
2023/12/14 08:49:02;;;;;;;24.05;13.80;;;5.40;99.90;;;;;;5010527;28;20077;-86
2023/12/14 08:51:50;;;;;;;18.92;13.05;;;5.60;99.90;;;;;;5019463;28;20079;-86
2023/12/14 08:54:38;;;;;;;19.63;12.00;;;5.70;99.90;;;;;;5016032;28;20049;-86
2023/12/14 08:57:25;;;;;;;18.52;11.30;;;5.80;99.90;;;;;;5017031;28;20053;-85
2023/12/14 09:00:18;;;;;;;25.38;12.00;;;5.80;99.90;;;;;;4997316;28;20054;-85
2023/12/14 09:03:06;;;;;;;16.88;10.88;;;5.80;99.90;;;;;;5017191;28;20454;-81
2023/12/14 09:05:53;;;;;;;21.67;11.30;;;5.80;99.90;;;;;;5024007;28;20053;-85
2023/12/14 09:08:41;;;;;;;15.90;10.52;;;5.80;99.90;;;;;;5016106;28;20042;-86
2023/12/14 09:11:29;;;;;;;20.20;10.93;;;5.90;99.90;;;;;;5002849;28;20045;-84
2023/12/14 09:14:20;;;;;;;18.95;11.52;;;6.00;99.90;;;;;;5010591;28;20046;-85
2023/12/14 09:17:08;;;;;;;18.15;11.27;;;6.10;99.90;;;;;;5019609;28;20049;-86
2023/12/14 09:19:55;;;;;;;19.63;11.43;;;6.20;99.90;;;;;;5020146;28;20149;-86
2023/12/14 09:22:43;;;;;;;14.63;10.65;;;6.20;99.90;;;;;;5005929;28;20068;-85
2023/12/14 09:25:33;;;;;;;16.80;11.25;;;6.10;99.90;;;;;;5019809;28;20646;-87
2023/12/14 09:28:20;;;;;;;16.73;10.70;;;6.30;99.90;;;;;;5014167;28;20038;-86
2023/12/14 09:31:11;;;;;;;14.57;10.10;;;6.30;99.90;;;;;;5017630;28;20057;-84
2023/12/14 09:33:59;;;;;;;23.30;11.57;;;6.30;99.90;;;;;;5024425;28;20100;-85
2023/12/14 09:36:47;;;;;;;19.10;11.82;;;6.40;99.90;;;;;;5013929;28;20077;-86
2023/12/14 09:39:36;;;;;;;22.25;11.70;;;6.40;99.90;;;;;;5022860;28;20143;-84
2023/12/14 09:42:23;;;;;;;18.00;11.38;;;6.30;99.90;;;;;;5017512;28;20438;-89
2023/12/14 09:45:11;;;;;;;16.27;11.35;;;6.50;99.90;;;;;;5024893;28;20052;-87
2023/12/14 09:48:01;;;;;;;16.00;10.23;;;6.50;99.90;;;;;;5016486;28;20544;-86
2023/12/14 09:50:50;;;;;;;17.58;10.65;;;6.60;99.90;;;;;;5002976;28;20046;-86
2023/12/14 09:53:37;;;;;;;19.15;10.45;;;6.50;99.90;;;;;;5008217;28;20061;-86
2023/12/14 09:56:26;;;;;;;16.15;10.65;;;6.60;99.90;;;;;;5021494;28;20103;-86
2023/12/14 09:59:14;;;;;;;12.60;9.52;;;6.70;99.90;;;;;;5009409;28;20077;-86
2023/12/14 10:02:12;;;;;;;13.82;8.65;;;7.00;99.90;;;;;;5015011;28;20128;-88
2023/12/14 10:04:59;;;;;;;10.48;8.55;;;7.10;99.90;;;;;;5014864;28;20068;-87
2023/12/14 10:07:48;;;;;;;9.77;7.85;;;7.10;99.90;;;;;;5011713;28;20046;-87
2023/12/14 10:10:35;;;;;;;11.32;8.18;;;7.20;99.90;;;;;;5013074;28;20132;-89
2023/12/14 10:13:43;;;;;;;8.57;7.68;;;7.40;99.90;;;;;;4997332;28;20057;-83
2023/12/14 10:16:32;;;;;;;11.23;7.47;;;7.60;99.90;;;;;;5013677;28;20065;-82
2023/12/14 10:19:21;;;;;;;8.77;6.78;;;7.80;99.90;;;;;;5007334;28;20038;-82
2023/12/14 10:22:11;;;;;;;15.00;9.05;;;7.70;99.90;;;;;;5012720;28;20076;-84
2023/12/14 10:24:59;;;;;;;12.57;7.75;;;7.60;99.90;;;;;;5001309;28;20045;-82
2023/12/14 10:27:50;;;;;;;9.60;6.85;;;7.50;99.90;;;;;;4992534;28;20052;-83
2023/12/14 10:30:38;;;;;;;6.50;5.40;;;7.50;99.90;;;;;;5013571;28;20116;-82
2023/12/14 10:33:25;;;;;;;8.68;5.63;;;7.50;99.90;;;;;;5017779;28;20046;-81
2023/12/14 10:36:14;;;;;;;7.60;5.60;;;7.60;99.90;;;;;;5011720;28;20041;-82
2023/12/14 10:39:03;;;;;;;6.95;5.05;;;7.60;99.90;;;;;;4996692;28;20093;-83
2023/12/14 10:41:55;;;;;;;7.22;4.95;;;7.60;99.90;;;;;;4987827;28;20053;-82
2023/12/14 10:44:59;;;;;;;8.35;5.47;;;7.50;99.90;;;;;;5011045;28;20543;-82
2023/12/14 10:48:07;;;;;;;6.88;5.93;;;7.50;99.90;;;;;;5010282;28;20050;-82
2023/12/14 10:50:56;;;;;;;6.80;5.82;;;7.50;99.90;;;;;;5004854;28;20105;-82
2023/12/14 10:53:47;;;;;;;8.63;5.95;;;7.70;99.90;;;;;;5009872;28;20034;-82
2023/12/14 10:56:37;;;;;;;6.97;5.10;;;7.90;99.90;;;;;;4994796;28;20111;-82
2023/12/14 10:59:27;;;;;;;7.93;4.60;;;7.90;99.90;;;;;;4996648;28;20053;-82
2023/12/14 11:02:17;;;;;;;7.75;5.05;;;8.00;99.90;;;;;;5007657;28;20408;-82
2023/12/14 11:05:09;;;;;;;7.90;5.00;;;8.40;99.90;;;;;;5008236;28;20370;-82
2023/12/14 11:08:01;;;;;;;9.45;3.95;;;8.90;99.90;;;;;;5011138;28;20045;-82
2023/12/14 11:11:11;;;;;;;5.03;3.03;;;9.60;99.90;;;;;;5007505;28;20042;-81
2023/12/14 11:14:04;;;;;;;4.82;2.90;;;9.90;99.90;;;;;;5006203;28;20058;-82
2023/12/14 11:16:55;;;;;;;3.08;2.40;;;10.30;99.90;;;;;;5002983;28;20047;-83
2023/12/14 11:19:46;;;;;;;2.87;1.73;;;12.00;99.90;;;;;;5020161;28;20100;-82
2023/12/14 11:22:35;;;;;;;4.80;2.25;;;13.40;99.90;;;;;;5021167;28;20050;-83
2023/12/14 11:25:24;;;;;;;3.47;1.92;;;14.20;99.90;;;;;;5029976;28;20038;-82
2023/12/14 11:28:25;;;;;;;;;;;15.40;99.90;;;;;;5030194;28;20053;-84
2023/12/14 11:31:14;;;;;;;3.55;1.42;;;16.30;1.00;;;;;;5023146;28;19944;-84
2023/12/14 11:34:04;;;;;;;2.28;1.50;;;15.80;1.00;;;;;;5027325;28;20059;-80
2023/12/14 11:36:51;;;;;;;4.22;1.60;;;15.50;99.90;;;;;;5031875;28;20068;-84
2023/12/14 11:39:41;;;;;;;1.98;1.77;;;15.20;99.90;;;;;;5022087;28;20042;-83
2023/12/14 11:42:31;;;;;;;6.20;2.10;;;14.40;9.20;;;;;;5010455;28;20061;-82
2023/12/14 11:45:19;;;;;;;4.43;2.40;;;12.70;99.90;;;;;;5002729;28;20061;-82
2023/12/14 11:48:11;;;;;;;3.95;2.60;;;11.50;1.00;;;;;;5011737;28;20070;-83
2023/12/14 11:51:00;;;;;;;4.70;2.40;;;10.80;99.90;;;;;;5010452;28;20050;-81
2023/12/14 11:53:50;;;;;;;6.07;2.65;;;9.80;1.00;;;;;;5007746;28;20048;-82
2023/12/14 11:56:37;;;;;;;7.82;4.25;;;9.20;99.90;;;;;;5007682;28;20172;-82
2023/12/14 11:59:26;;;;;;;4.47;2.65;;;8.70;1.00;;;;;;5012131;28;20046;-81
2023/12/14 12:02:24;;;;;;;6.30;3.35;;;8.20;99.90;;;;;;5009191;28;20060;-84
2023/12/14 12:05:13;;;;;;;5.28;2.80;;;7.90;99.90;;;;;;5009734;28;20046;-83
2023/12/14 12:08:01;;;;;;;4.38;2.63;;;7.60;99.90;;;;;;5008411;28;20093;-83
2023/12/14 12:10:51;;;;;;;3.08;2.78;;;7.40;1.00;;;;;;5001227;28;20037;-83
2023/12/14 12:13:40;;;;;;;6.20;2.47;;;7.30;99.90;;;;;;4992557;28;20442;-83
2023/12/14 12:16:29;;;;;;;4.47;2.67;;;7.30;99.90;;;;;;5007833;28;20077;-83
2023/12/14 12:19:19;;;;;;;4.68;2.38;;;7.30;1.00;;;;;;4997796;28;20084;-83
2023/12/14 12:22:09;;;;;;;3.28;2.67;;;7.40;99.90;;;;;;5012487;28;20093;-80
2023/12/14 12:24:58;;;;;;;5.03;2.50;;;7.40;1.00;;;;;;4997257;28;20061;-81
2023/12/14 12:28:01;;;;;;;4.07;2.53;;;7.40;99.90;;;;;;5013357;28;20056;-83
2023/12/14 12:30:49;;;;;;;4.93;2.72;;;7.50;22.90;;;;;;5007904;28;20068;-82
2023/12/14 12:33:38;;;;;;;3.00;2.53;;;7.40;1.00;;;;;;5012487;28;20100;-81
2023/12/14 12:36:28;;;;;;;3.10;2.80;;;7.50;1.00;;;;;;5014852;28;20373;-83
2023/12/14 12:39:17;;;;;;;4.85;2.72;;;7.50;99.90;;;;;;5006314;28;20046;-83
2023/12/14 12:42:05;;;;;;;6.43;3.30;;;7.60;1.00;;;;;;5015077;28;20050;-82
2023/12/14 12:44:52;;;;;;;3.40;2.88;;;7.70;99.90;;;;;;5021542;28;20133;-83
2023/12/14 12:47:39;;;;;;;5.07;3.17;;;7.80;99.90;;;;;;5021317;28;20042;-82
2023/12/14 12:50:30;;;;;;;5.63;3.05;;;7.80;1.00;;;;;;5000938;28;20042;-83
2023/12/14 12:53:22;;;;;;;3.90;2.80;;;7.90;99.90;;;;;;4998167;28;20124;-82
2023/12/14 12:56:09;;;;;;;6.50;3.60;;;8.10;99.90;;;;;;4992303;28;20096;-82
2023/12/14 12:58:58;;;;;;;3.65;2.70;;;8.30;1.00;;;;;;4988725;28;20046;-84
2023/12/14 13:01:46;;;;;;;8.25;3.40;;;8.40;99.90;;;;;;4993235;28;20115;-84
2023/12/14 13:04:33;;;;;;;3.60;3.10;;;8.50;97.90;;;;;;5003427;28;20429;-83
2023/12/14 13:07:21;;;;;;;5.07;3.63;;;8.60;1.00;;;;;;5011806;28;20049;-82
2023/12/14 13:10:10;;;;;;;4.53;3.85;;;8.40;99.90;;;;;;5004898;28;20054;-82
2023/12/14 13:13:14;;;;;;;6.25;3.85;;;8.40;1.00;;;;;;5001141;28;20061;-80
2023/12/14 13:16:02;;;;;;;9.35;3.70;;;8.50;1.00;;;;;;5009911;28;20755;-83
2023/12/14 13:18:49;;;;;;;6.75;4.03;;;8.40;1.00;;;;;;5010368;28;20073;-82
2023/12/14 13:21:37;;;;;;;9.50;4.50;;;8.30;99.90;;;;;;5008877;28;20391;-82
2023/12/14 13:24:25;;;;;;;6.60;4.28;;;8.20;1.00;;;;;;5014958;28;20046;-82
2023/12/14 13:27:13;;;;;;;7.22;4.70;;;8.00;99.90;;;;;;5016074;28;20046;-83
2023/12/14 13:30:00;;;;;;;6.90;4.95;;;7.80;1.00;;;;;;5010238;28;20050;-82
2023/12/14 13:32:48;;;;;;;7.38;4.90;;;7.70;99.90;;;;;;5003029;28;20443;-83
2023/12/14 13:35:36;;;;;;;8.73;4.07;;;7.50;99.90;;;;;;5015248;28;20526;-82
2023/12/14 13:38:23;;;;;;;6.65;4.05;;;7.40;1.00;;;;;;5009011;28;20437;-81
2023/12/14 13:41:11;;;;;;;6.57;4.00;;;7.40;99.90;;;;;;5002567;28;20069;-82
2023/12/14 13:43:58;;;;;;;6.95;3.55;;;7.40;99.90;;;;;;5003305;28;20119;-80
2023/12/14 13:46:46;;;;;;;6.90;4.10;;;7.40;1.00;;;;;;5010122;28;20048;-81
2023/12/14 13:49:33;;;;;;;2.88;2.50;;;7.30;1.00;;;;;;5002739;28;20112;-83
2023/12/14 13:52:24;;;;;;;2.35;1.85;;;6.80;1.00;;;;;;5009118;28;20045;-83
2023/12/14 13:55:15;;;;;;;3.50;2.40;;;6.30;1.00;;;;;;5005441;28;20129;-83
2023/12/14 13:58:04;;;;;;;4.07;2.10;;;6.10;75.90;;;;;;5008611;28;20046;-81
2023/12/14 14:00:51;;;;;;;2.92;2.35;;;5.90;99.90;;;;;;5010123;28;20041;-84
2023/12/14 14:03:41;;;;;;;4.22;3.13;;;5.80;99.90;;;;;;5009551;28;20046;-84
2023/12/14 14:06:29;;;;;;;4.53;3.08;;;5.70;99.90;;;;;;5012136;28;20048;-82
2023/12/14 14:09:16;;;;;;;4.95;3.65;;;5.80;99.90;;;;;;4997429;28;20057;-80
2023/12/14 14:12:06;;;;;;;4.78;3.70;;;5.80;99.90;;;;;;5010773;28;20441;-83
2023/12/14 14:14:53;;;;;;;6.88;4.20;;;5.70;99.90;;;;;;5006481;28;20050;-83
2023/12/14 14:17:41;;;;;;;7.63;4.90;;;5.70;99.90;;;;;;5003465;28;20034;-84
2023/12/14 14:20:29;;;;;;;10.07;4.47;;;5.70;99.90;;;;;;4994737;28;20054;-83
2023/12/14 14:23:19;;;;;;;9.13;5.70;;;5.60;99.90;;;;;;4998527;28;20180;-83
2023/12/14 14:26:06;;;;;;;11.68;6.78;;;5.60;99.90;;;;;;5006343;28;20405;-83
2023/12/14 14:28:59;;;;;;;10.38;7.00;;;5.60;99.90;;;;;;5003509;28;20128;-82
2023/12/14 14:31:48;;;;;;;17.70;9.57;;;5.60;99.90;;;;;;5007659;28;20042;-84
2023/12/14 14:34:35;;;;;;;14.80;8.55;;;5.60;99.90;;;;;;5002645;28;20039;-83
2023/12/14 14:37:22;;;;;;;19.17;9.88;;;5.70;99.90;;;;;;5015233;28;20148;-82